Time;durP1;ratioP1;P1;durP2;ratioP2;P2;SDS_P1;SDS_P2;PMS_P1;PMS_P2;Temp;Humidity;BMP_temperature;BMP_pressure;BME280_temperature;BME280_humidity;BME280_pressure;Samples;Min_cycle;Max_cycle;Signal;HPM_P1;HPM_P2
2023/10/01 00:00:20;;;;;;;0.68;0.68;;;14.60;99.90;;;;;;5039561;28;20036;-69
2023/10/01 00:02:48;;;;;;;0.50;0.50;;;14.60;99.90;;;;;;5049166;28;20391;-70
2023/10/01 00:05:14;;;;;;;0.20;0.20;;;14.60;99.90;;;;;;5048314;28;20299;-70
2023/10/01 00:07:41;;;;;;;1.08;0.98;;;14.60;99.90;;;;;;5052311;28;20033;-70
2023/10/01 00:10:13;;;;;;;0.55;0.55;;;14.60;99.90;;;;;;5046665;28;20073;-70
2023/10/01 00:12:40;;;;;;;1.80;0.60;;;14.50;99.90;;;;;;5050389;28;20411;-70
2023/10/01 00:15:10;;;;;;;0.60;0.30;;;14.50;99.90;;;;;;5043698;28;20056;-69
2023/10/01 00:17:40;;;;;;;0.40;0.20;;;14.50;99.90;;;;;;5066894;28;20048;-70
2023/10/01 00:20:23;;;;;;;0.20;0.20;;;14.40;99.90;;;;;;5048884;28;20043;-69
2023/10/01 00:22:51;;;;;;;0.90;0.55;;;14.50;99.90;;;;;;5044609;28;20036;-69
2023/10/01 00:25:19;;;;;;;2.22;0.50;;;14.40;99.90;;;;;;5045364;28;20048;-70
2023/10/01 00:27:45;;;;;;;0.38;0.38;;;14.40;99.90;;;;;;5073218;28;20087;-69
2023/10/01 00:30:11;;;;;;;0.55;0.55;;;14.30;99.90;;;;;;5048326;28;20040;-69
2023/10/01 00:32:38;;;;;;;0.70;0.70;;;14.30;99.90;;;;;;5047980;28;20104;-69
2023/10/01 00:35:04;;;;;;;4.43;1.27;;;14.20;99.90;;;;;;5049443;28;20058;-69
2023/10/01 00:37:32;;;;;;;0.10;0.10;;;14.20;99.90;;;;;;5045020;28;20093;-69
2023/10/01 00:39:59;;;;;;;0.38;0.38;;;14.20;99.90;;;;;;5042014;28;20045;-69
2023/10/01 00:42:28;;;;;;;0.30;0.30;;;14.20;99.90;;;;;;5046838;28;20132;-70
2023/10/01 00:44:54;;;;;;;0.40;0.40;;;14.20;99.90;;;;;;5046071;28;20170;-69
2023/10/01 00:47:21;;;;;;;2.33;0.68;;;14.20;99.90;;;;;;5048586;28;20040;-69
2023/10/01 00:49:48;;;;;;;10.15;1.17;;;14.20;99.90;;;;;;5043421;28;20066;-69
2023/10/01 00:52:22;;;;;;;0.77;0.52;;;14.20;99.90;;;;;;5041402;28;20037;-69
2023/10/01 00:54:51;;;;;;;0.10;0.10;;;14.20;99.90;;;;;;5068780;28;20091;-69
2023/10/01 00:57:17;;;;;;;0.35;0.35;;;14.30;99.90;;;;;;5045245;28;20052;-69
2023/10/01 00:59:44;;;;;;;0.55;0.25;;;14.30;99.90;;;;;;5049369;28;20040;-69
2023/10/01 01:02:10;;;;;;;0.55;0.30;;;14.30;99.90;;;;;;5047541;28;20040;-69
2023/10/01 01:04:42;;;;;;;0.52;0.30;;;14.30;99.90;;;;;;5046616;28;20106;-70
2023/10/01 01:07:23;;;;;;;1.55;1.00;;;14.30;99.90;;;;;;5048807;28;20130;-69
2023/10/01 01:09:50;;;;;;;3.00;1.23;;;14.30;99.90;;;;;;5042189;28;20384;-70
2023/10/01 01:12:15;;;;;;;0.00;0.00;;;14.30;99.90;;;;;;5047524;28;20040;-70
2023/10/01 01:14:44;;;;;;;2.97;0.73;;;14.40;99.90;;;;;;5045901;28;20043;-69
2023/10/01 01:17:14;;;;;;;4.70;1.00;;;14.40;99.90;;;;;;5050353;28;20506;-69
2023/10/01 01:19:42;;;;;;;0.30;0.20;;;14.40;99.90;;;;;;5048367;28;20033;-70
2023/10/01 01:22:16;;;;;;;1.25;1.15;;;14.40;99.90;;;;;;5046078;28;20285;-69
2023/10/01 01:24:42;;;;;;;0.32;0.20;;;14.40;99.90;;;;;;5038335;28;20040;-69
2023/10/01 01:27:07;;;;;;;1.67;0.30;;;14.40;99.90;;;;;;5044644;28;20041;-69
2023/10/01 01:29:40;;;;;;;0.50;0.40;;;14.40;99.90;;;;;;5046783;28;20094;-69
2023/10/01 01:32:15;;;;;;;0.25;0.20;;;14.40;99.90;;;;;;5047995;28;20057;-70
2023/10/01 01:34:41;;;;;;;0.75;0.38;;;14.40;99.90;;;;;;5042791;28;20074;-70
2023/10/01 01:37:08;;;;;;;0.20;0.20;;;14.40;99.90;;;;;;5042937;28;20045;-69
2023/10/01 01:39:48;;;;;;;0.30;0.30;;;14.40;99.90;;;;;;5042281;28;20445;-70
2023/10/01 01:42:25;;;;;;;1.83;0.57;;;14.40;99.90;;;;;;5038851;28;20464;-69
2023/10/01 01:47:38;;;;;;;0.30;0.30;;;14.40;99.90;;;;;;5044104;28;20048;-70
2023/10/01 01:50:17;;;;;;;0.20;0.20;;;14.40;99.90;;;;;;5027922;28;20464;-69
2023/10/01 01:52:47;;;;;;;0.50;0.50;;;14.40;99.90;;;;;;5039999;28;20072;-70
2023/10/01 01:55:23;;;;;;;1.08;0.52;;;14.40;99.90;;;;;;5048964;28;20123;-69
2023/10/01 01:58:08;;;;;;;0.45;0.45;;;14.40;99.90;;;;;;5047891;28;20045;-69
2023/10/01 02:00:37;;;;;;;0.22;0.22;;;14.40;99.90;;;;;;5045464;28;20084;-69
2023/10/01 02:03:14;;;;;;;6.80;1.70;;;14.40;99.90;;;;;;5038579;28;20041;-70
2023/10/01 02:05:41;;;;;;;0.15;0.15;;;14.40;99.90;;;;;;5038755;28;20060;-69
2023/10/01 02:08:23;;;;;;;0.30;0.30;;;14.40;99.90;;;;;;5046487;28;20048;-69
2023/10/01 02:10:53;;;;;;;0.50;0.50;;;14.40;99.90;;;;;;5039628;28;20048;-69
2023/10/01 02:13:19;;;;;;;1.02;0.85;;;14.40;99.90;;;;;;5039840;28;20047;-69
2023/10/01 02:15:45;;;;;;;0.47;0.47;;;14.40;99.90;;;;;;5048695;28;20033;-69
2023/10/01 02:18:16;;;;;;;2.03;0.60;;;14.40;99.90;;;;;;5035986;28;20041;-69
2023/10/01 02:20:44;;;;;;;0.30;0.30;;;14.40;99.90;;;;;;5069742;28;20036;-69
2023/10/01 02:23:12;;;;;;;0.40;0.40;;;14.40;99.90;;;;;;5044973;28;20047;-69
2023/10/01 02:25:46;;;;;;;0.35;0.35;;;14.40;99.90;;;;;;5051530;28;20071;-69
2023/10/01 02:28:15;;;;;;;0.20;0.20;;;14.40;99.90;;;;;;5042467;28;20041;-69
2023/10/01 02:30:44;;;;;;;0.70;0.70;;;14.50;99.90;;;;;;5045425;28;20056;-69
2023/10/01 02:33:17;;;;;;;0.40;0.40;;;14.40;99.90;;;;;;5045451;28;20051;-69
2023/10/01 02:35:46;;;;;;;6.05;1.08;;;14.50;99.90;;;;;;5046150;28;20081;-69
2023/10/01 02:40:57;;;;;;;0.20;0.20;;;14.50;99.90;;;;;;5043130;28;20070;-69
2023/10/01 02:43:33;;;;;;;0.85;0.30;;;14.40;99.90;;;;;;5064554;28;20123;-69
2023/10/01 02:46:04;;;;;;;2.55;0.82;;;14.50;99.90;;;;;;5039803;28;20154;-69
2023/10/01 02:48:30;;;;;;;0.25;0.25;;;14.40;99.90;;;;;;5071595;28;20040;-69
2023/10/01 02:50:56;;;;;;;0.25;0.20;;;14.40;99.90;;;;;;5035830;28;20105;-69
2023/10/01 02:53:22;;;;;;;0.68;0.45;;;14.50;99.90;;;;;;5069479;28;20048;-69
2023/10/01 02:55:52;;;;;;;1.52;0.77;;;14.50;99.90;;;;;;5036662;28;20047;-69
2023/10/01 02:58:28;;;;;;;5.13;1.38;;;14.50;99.90;;;;;;5040523;28;20441;-69
2023/10/01 03:00:54;;;;;;;0.25;0.25;;;14.50;99.90;;;;;;5046229;28;20175;-69
2023/10/01 03:03:31;;;;;;;2.85;1.10;;;14.50;99.90;;;;;;5041776;28;20043;-69
2023/10/01 03:05:58;;;;;;;0.50;0.40;;;14.50;99.90;;;;;;5040003;28;20471;-68
2023/10/01 03:11:09;;;;;;;1.13;0.47;;;14.50;99.90;;;;;;5045333;28;20098;-69
2023/10/01 03:13:36;;;;;;;1.02;0.50;;;14.50;99.90;;;;;;5039487;28;20040;-69
2023/10/01 03:18:48;;;;;;;0.10;0.10;;;14.60;99.90;;;;;;5044277;28;20047;-69
2023/10/01 03:21:37;;;;;;;2.08;0.25;;;14.60;99.90;;;;;;5045145;28;20040;-69
2023/10/01 03:24:03;;;;;;;0.35;0.35;;;14.60;99.90;;;;;;5046061;28;20059;-69
2023/10/01 03:26:33;;;;;;;0.43;0.43;;;14.60;99.90;;;;;;5043552;28;20028;-69
2023/10/01 03:29:16;;;;;;;1.65;0.55;;;14.60;99.90;;;;;;5060306;28;20041;-69
2023/10/01 03:31:46;;;;;;;0.25;0.25;;;14.60;99.90;;;;;;5047377;28;20044;-69
2023/10/01 03:34:30;;;;;;;0.55;0.55;;;14.60;99.90;;;;;;5044306;28;20086;-70
2023/10/01 03:37:00;;;;;;;0.10;0.10;;;14.60;99.90;;;;;;5066499;28;20757;-69
2023/10/01 03:39:26;;;;;;;0.82;0.47;;;14.60;99.90;;;;;;5032383;28;20060;-69
2023/10/01 03:42:17;;;;;;;0.20;0.20;;;14.60;99.90;;;;;;5044818;28;20072;-69
2023/10/01 03:47:50;;;;;;;0.68;0.25;;;14.60;99.90;;;;;;5007422;28;20092;-69
2023/10/01 03:50:20;;;;;;;0.40;0.40;;;14.60;99.90;;;;;;5038148;28;20075;-69
2023/10/01 03:52:52;;;;;;;2.20;1.23;;;14.60;99.90;;;;;;5070107;28;20118;-69
2023/10/01 03:55:28;;;;;;;0.40;0.30;;;14.60;99.90;;;;;;5045810;28;20080;-70
2023/10/01 04:00:32;;;;;;;0.20;0.20;;;14.60;99.90;;;;;;5045104;28;20055;-69
2023/10/01 04:02:58;;;;;;;2.28;0.32;;;14.60;99.90;;;;;;5035609;28;20029;-69
2023/10/01 04:05:34;;;;;;;0.30;0.30;;;14.60;99.90;;;;;;5042392;28;20044;-69
2023/10/01 04:08:08;;;;;;;1.75;1.55;;;14.60;99.90;;;;;;5041608;28;20044;-69
2023/10/01 04:10:38;;;;;;;0.20;0.20;;;14.60;99.90;;;;;;5039598;28;20475;-69
2023/10/01 04:13:20;;;;;;;2.08;0.65;;;14.60;99.90;;;;;;5046343;28;20032;-69
2023/10/01 04:15:48;;;;;;;0.20;0.20;;;14.60;99.90;;;;;;5043795;28;21690;-69
2023/10/01 04:23:30;;;;;;;0.40;0.40;;;14.60;99.90;;;;;;5049426;28;20048;-69
2023/10/01 04:26:06;;;;;;;1.08;0.77;;;14.60;99.90;;;;;;5054022;28;20041;-69
2023/10/01 04:28:45;;;;;;;0.28;0.28;;;14.50;99.90;;;;;;5047765;28;20040;-69
2023/10/01 04:31:15;;;;;;;0.65;0.20;;;14.60;99.90;;;;;;5047883;28;20071;-69
2023/10/01 04:33:43;;;;;;;0.32;0.32;;;14.60;99.90;;;;;;5042081;28;20403;-69
2023/10/01 04:36:16;;;;;;;0.20;0.20;;;14.50;99.90;;;;;;5046255;28;20074;-69
2023/10/01 04:38:43;;;;;;;;;;;14.60;99.90;;;;;;5044352;28;20121;-69
2023/10/01 04:41:13;;;;;;;0.88;0.55;;;14.60;99.90;;;;;;5045464;28;19923;-69
2023/10/01 04:43:51;;;;;;;1.27;0.73;;;14.60;99.90;;;;;;5048909;28;20112;-69
2023/10/01 04:46:20;;;;;;;0.65;0.63;;;14.50;99.90;;;;;;5071149;28;20379;-69
2023/10/01 04:48:47;;;;;;;0.40;0.40;;;14.50;99.90;;;;;;5037772;28;20415;-69
2023/10/01 04:51:12;;;;;;;1.35;0.38;;;14.60;99.90;;;;;;5044818;28;20097;-69
2023/10/01 04:53:39;;;;;;;0.15;0.15;;;14.50;99.90;;;;;;5044785;28;20037;-70
2023/10/01 04:56:10;;;;;;;0.35;0.30;;;14.50;99.90;;;;;;5070072;28;20666;-69
2023/10/01 04:58:36;;;;;;;0.68;0.40;;;14.60;99.90;;;;;;5036537;28;20093;-70
2023/10/01 05:01:06;;;;;;;0.77;0.77;;;14.50;99.90;;;;;;5031925;28;20040;-69
2023/10/01 05:03:44;;;;;;;1.13;0.77;;;14.50;99.90;;;;;;5075037;28;20068;-69
2023/10/01 05:06:14;;;;;;;0.43;0.43;;;14.50;99.90;;;;;;5038363;28;21296;-69
2023/10/01 05:08:42;;;;;;;0.80;0.10;;;14.50;99.90;;;;;;5035761;28;20139;-70
2023/10/01 05:11:12;;;;;;;1.00;1.00;;;14.60;99.90;;;;;;5057230;28;20044;-69
2023/10/01 05:13:47;;;;;;;0.55;0.55;;;14.60;99.90;;;;;;5039889;28;20049;-69
2023/10/01 05:16:14;;;;;;;1.17;1.02;;;14.60;99.90;;;;;;5078256;28;20435;-69
2023/10/01 05:18:48;;;;;;;0.30;0.30;;;14.60;99.90;;;;;;5062385;28;20438;-69
2023/10/01 05:21:18;;;;;;;6.90;1.10;;;14.60;99.90;;;;;;5041421;28;20111;-69
2023/10/01 05:23:48;;;;;;;0.22;0.22;;;14.60;99.90;;;;;;5035407;28;20033;-69
2023/10/01 05:26:20;;;;;;;0.45;0.32;;;14.60;99.90;;;;;;5040550;28;20068;-70
2023/10/01 05:28:47;;;;;;;1.00;0.20;;;14.60;99.90;;;;;;5039376;28;20040;-70
2023/10/01 05:31:13;;;;;;;1.17;0.85;;;14.60;99.90;;;;;;5039402;28;20136;-69
2023/10/01 05:33:39;;;;;;;1.38;1.27;;;14.60;99.90;;;;;;5040523;28;20483;-70
2023/10/01 05:36:05;;;;;;;1.05;0.20;;;14.60;99.90;;;;;;5049450;28;20056;-69
2023/10/01 05:38:35;;;;;;;0.40;0.40;;;14.60;99.90;;;;;;5040119;28;20071;-70
2023/10/01 05:41:03;;;;;;;1.13;0.47;;;14.60;99.90;;;;;;5057277;28;20069;-69
2023/10/01 05:43:43;;;;;;;0.57;0.57;;;14.50;99.90;;;;;;5039844;28;20063;-70
2023/10/01 05:46:09;;;;;;;0.95;0.52;;;14.50;99.90;;;;;;5034468;28;21598;-69
2023/10/01 05:48:39;;;;;;;0.90;0.80;;;14.60;99.90;;;;;;5041394;28;20159;-69
2023/10/01 05:51:12;;;;;;;1.52;0.88;;;14.60;99.90;;;;;;5068291;28;20178;-70
2023/10/01 05:53:41;;;;;;;0.40;0.38;;;14.50;99.90;;;;;;5045874;28;20503;-69
2023/10/01 05:56:07;;;;;;;0.20;0.20;;;14.60;99.90;;;;;;5072647;28;20536;-70
2023/10/01 05:58:34;;;;;;;0.43;0.43;;;14.50;99.90;;;;;;5022095;28;20166;-70
2023/10/01 06:01:13;;;;;;;2.17;1.10;;;14.50;99.90;;;;;;5035146;28;20136;-70
2023/10/01 06:03:40;;;;;;;1.30;1.20;;;14.50;99.90;;;;;;5035652;28;20041;-69
2023/10/01 06:06:24;;;;;;;2.17;1.98;;;14.60;99.90;;;;;;5049942;28;20043;-70
2023/10/01 06:08:58;;;;;;;1.23;0.85;;;14.50;99.90;;;;;;5038581;28;20043;-69
2023/10/01 06:11:38;;;;;;;1.27;1.02;;;14.60;99.90;;;;;;5043008;28;20160;-70
2023/10/01 06:14:05;;;;;;;1.27;0.95;;;14.60;99.90;;;;;;5035946;28;20032;-69
2023/10/01 06:16:37;;;;;;;0.55;0.55;;;14.60;99.90;;;;;;5071247;28;20033;-69
2023/10/01 06:19:03;;;;;;;;;;;14.50;99.90;;;;;;5043241;28;20504;-69
2023/10/01 06:21:33;;;;;;;0.20;0.20;;;14.60;99.90;;;;;;5069507;28;19917;-69
2023/10/01 06:24:04;;;;;;;0.70;0.28;;;14.60;99.90;;;;;;5038589;28;20036;-69
2023/10/01 06:26:36;;;;;;;1.23;1.15;;;14.60;99.90;;;;;;5037844;28;20040;-69
2023/10/01 06:29:07;;;;;;;;;;;14.60;99.90;;;;;;5065566;28;20904;-69
2023/10/01 06:31:48;;;;;;;0.70;0.55;;;14.60;99.90;;;;;;5050577;28;20342;-70
2023/10/01 06:34:19;;;;;;;0.20;0.20;;;14.60;99.90;;;;;;5035976;28;20403;-70
2023/10/01 06:36:45;;;;;;;0.30;0.30;;;14.60;99.90;;;;;;5051224;28;20044;-70
2023/10/01 06:39:20;;;;;;;0.22;0.22;;;14.70;99.90;;;;;;5046636;28;20098;-70
2023/10/01 06:41:48;;;;;;;0.38;0.10;;;14.70;99.90;;;;;;5051478;28;20079;-70
2023/10/01 06:44:14;;;;;;;1.85;0.30;;;14.70;99.90;;;;;;5070356;28;20040;-70
2023/10/01 06:46:40;;;;;;;0.52;0.35;;;14.70;99.90;;;;;;5026105;28;20056;-69
2023/10/01 06:49:08;;;;;;;1.25;0.57;;;14.70;99.90;;;;;;5069119;28;20041;-70
2023/10/01 06:51:43;;;;;;;0.98;0.90;;;14.70;99.90;;;;;;5046760;28;20036;-70
2023/10/01 06:54:10;;;;;;;0.35;0.35;;;14.80;99.90;;;;;;5039787;28;20064;-70
2023/10/01 06:56:38;;;;;;;1.45;0.50;;;14.80;99.90;;;;;;5038078;28;20049;-69
2023/10/01 06:59:27;;;;;;;0.20;0.20;;;14.80;99.90;;;;;;5059132;28;20070;-69
2023/10/01 07:01:56;;;;;;;0.38;0.38;;;14.80;99.90;;;;;;5039197;28;20540;-70
2023/10/01 07:04:27;;;;;;;2.28;1.05;;;14.90;99.90;;;;;;5042114;28;20480;-70
2023/10/01 07:06:53;;;;;;;0.15;0.15;;;14.90;99.90;;;;;;5039108;28;20408;-70
2023/10/01 07:09:27;;;;;;;0.40;0.40;;;14.90;99.90;;;;;;5070795;28;20049;-70
2023/10/01 07:12:03;;;;;;;0.30;0.30;;;15.00;99.90;;;;;;5073902;28;20084;-70
2023/10/01 07:14:50;;;;;;;0.20;0.20;;;15.10;99.90;;;;;;5041535;28;20369;-69
2023/10/01 07:17:19;;;;;;;0.93;0.80;;;15.10;99.90;;;;;;5044577;28;20054;-69
2023/10/01 07:19:46;;;;;;;3.10;0.80;;;15.10;99.90;;;;;;5041518;28;20056;-70
2023/10/01 07:22:14;;;;;;;0.52;0.52;;;15.20;99.90;;;;;;5045872;28;20127;-69
2023/10/01 07:24:43;;;;;;;0.52;0.43;;;15.30;99.90;;;;;;5047034;28;20395;-70
2023/10/01 07:27:11;;;;;;;1.27;0.82;;;15.30;99.90;;;;;;5043227;28;20075;-70
2023/10/01 07:29:42;;;;;;;0.28;0.20;;;15.40;99.90;;;;;;5041457;28;20055;-69
2023/10/01 07:32:12;;;;;;;1.17;1.08;;;15.40;99.90;;;;;;5039322;28;20135;-70
2023/10/01 07:34:53;;;;;;;0.75;0.30;;;15.40;99.90;;;;;;5043305;28;20083;-70
2023/10/01 07:37:25;;;;;;;5.57;0.60;;;15.50;99.90;;;;;;5051231;28;20054;-70
2023/10/01 07:39:55;;;;;;;0.45;0.32;;;15.50;99.90;;;;;;5073359;28;20079;-71
2023/10/01 07:42:25;;;;;;;3.67;1.10;;;15.60;99.90;;;;;;5044128;28;20037;-70
2023/10/01 07:44:52;;;;;;;0.80;0.80;;;15.60;99.90;;;;;;5043462;28;20029;-70
2023/10/01 07:47:32;;;;;;;1.27;0.70;;;15.60;99.90;;;;;;5046610;28;20079;-70
2023/10/01 07:50:02;;;;;;;1.33;0.57;;;15.70;99.90;;;;;;5041310;28;20041;-72
2023/10/01 07:52:27;;;;;;;1.38;0.98;;;15.70;99.90;;;;;;5080714;28;20384;-72
2023/10/01 07:54:55;;;;;;;0.85;0.85;;;15.70;99.90;;;;;;5045654;28;20055;-69
2023/10/01 07:57:27;;;;;;;0.80;0.80;;;15.70;99.90;;;;;;5043472;28;20406;-70
2023/10/01 07:59:54;;;;;;;0.85;0.82;;;15.80;99.90;;;;;;5042500;28;20044;-72
2023/10/01 08:02:21;;;;;;;0.70;0.65;;;15.80;99.90;;;;;;5039273;28;20119;-71
2023/10/01 08:05:00;;;;;;;0.15;0.15;;;15.80;99.90;;;;;;5042571;28;20468;-70
2023/10/01 08:07:30;;;;;;;0.73;0.73;;;15.90;99.90;;;;;;5042606;28;20663;-71
2023/10/01 08:09:59;;;;;;;4.78;0.57;;;16.00;99.90;;;;;;5069561;28;20040;-70
2023/10/01 08:12:29;;;;;;;0.70;0.22;;;16.00;99.90;;;;;;5044740;28;20123;-70
2023/10/01 08:17:43;;;;;;;0.63;0.63;;;16.20;99.90;;;;;;5045106;28;20106;-72
2023/10/01 08:20:17;;;;;;;0.47;0.47;;;16.20;99.90;;;;;;5040066;28;20041;-71
2023/10/01 08:23:12;;;;;;;0.90;0.90;;;16.30;99.90;;;;;;5046167;28;20040;-70
2023/10/01 08:25:42;;;;;;;2.60;1.38;;;16.20;99.90;;;;;;5036665;28;20045;-70
2023/10/01 08:28:26;;;;;;;0.57;0.38;;;16.30;99.90;;;;;;5040491;28;20087;-71
2023/10/01 08:31:01;;;;;;;0.77;0.65;;;16.30;99.90;;;;;;5034684;28;20040;-70
2023/10/01 08:33:32;;;;;;;0.40;0.40;;;16.30;99.90;;;;;;5040035;28;20076;-72
2023/10/01 08:36:24;;;;;;;1.17;0.37;;;16.40;99.90;;;;;;5040759;28;20040;-71
2023/10/01 08:39:19;;;;;;;0.20;0.20;;;16.50;99.90;;;;;;5041593;28;20223;-71
2023/10/01 08:41:47;;;;;;;0.77;0.77;;;16.60;99.90;;;;;;5071660;28;20080;-70
2023/10/01 08:44:19;;;;;;;0.57;0.45;;;16.70;99.90;;;;;;5047181;28;20123;-71
2023/10/01 08:46:45;;;;;;;0.47;0.47;;;16.80;99.90;;;;;;5034377;28;20086;-70
2023/10/01 08:49:24;;;;;;;1.60;0.95;;;16.80;99.90;;;;;;5041190;28;20052;-71
2023/10/01 08:52:18;;;;;;;0.90;0.90;;;16.80;99.90;;;;;;5036382;28;20088;-72
2023/10/01 08:54:43;;;;;;;3.70;1.00;;;17.00;99.90;;;;;;5042212;28;20048;-72
2023/10/01 08:57:17;;;;;;;1.05;0.98;;;17.10;99.90;;;;;;5042223;28;20040;-71
2023/10/01 08:59:45;;;;;;;0.43;0.40;;;17.30;99.90;;;;;;5041529;28;20049;-71
2023/10/01 09:02:15;;;;;;;2.78;2.58;;;17.50;99.90;;;;;;5070824;28;20040;-70
2023/10/01 09:04:44;;;;;;;0.43;0.43;;;17.50;99.90;;;;;;5042259;28;20491;-71
2023/10/01 09:07:18;;;;;;;0.77;0.77;;;17.60;99.90;;;;;;5041323;28;20032;-72
2023/10/01 09:10:05;;;;;;;2.28;0.85;;;17.60;99.90;;;;;;5043553;28;20075;-71
2023/10/01 09:12:35;;;;;;;3.10;1.65;;;17.60;99.90;;;;;;5040457;28;20042;-70
2023/10/01 09:15:04;;;;;;;2.72;1.48;;;17.60;99.90;;;;;;5039799;28;20048;-72
2023/10/01 09:17:40;;;;;;;0.30;0.30;;;17.70;99.90;;;;;;5072423;28;20048;-71
2023/10/01 09:20:09;;;;;;;3.00;2.03;;;17.70;99.90;;;;;;5035430;28;20047;-71
2023/10/01 09:25:25;;;;;;;1.45;1.13;;;17.70;99.90;;;;;;5036770;28;20567;-71
2023/10/01 09:27:57;;;;;;;0.17;0.17;;;17.70;99.90;;;;;;5074352;28;20036;-72
2023/10/01 09:30:26;;;;;;;0.30;0.30;;;17.70;99.90;;;;;;5042647;28;20059;-71
2023/10/01 09:32:52;;;;;;;3.50;0.93;;;17.80;99.90;;;;;;5060224;28;20054;-71
2023/10/01 09:35:30;;;;;;;0.60;0.60;;;17.90;99.90;;;;;;5038339;28;20071;-71
2023/10/01 09:38:10;;;;;;;0.65;0.47;;;17.90;99.90;;;;;;5044653;28;20040;-71
2023/10/01 09:40:47;;;;;;;1.13;0.77;;;17.90;99.90;;;;;;5041904;28;20136;-71
2023/10/01 09:43:30;;;;;;;0.90;0.88;;;18.00;99.90;;;;;;5046641;28;20039;-71
2023/10/01 09:45:58;;;;;;;2.13;1.13;;;18.00;99.90;;;;;;5046752;28;20049;-71
2023/10/01 09:48:33;;;;;;;1.85;1.08;;;18.10;99.90;;;;;;5046823;28;20752;-70
2023/10/01 09:51:18;;;;;;;1.85;1.75;;;18.20;99.90;;;;;;5038271;28;20048;-71
2023/10/01 09:54:04;;;;;;;1.98;1.38;;;18.30;99.90;;;;;;5048299;28;20040;-72
2023/10/01 09:56:45;;;;;;;0.15;0.15;;;18.40;99.90;;;;;;5039039;28;20078;-71
2023/10/01 09:59:11;;;;;;;0.85;0.63;;;18.40;99.90;;;;;;5041278;28;20626;-71
2023/10/01 10:01:39;;;;;;;2.17;1.02;;;18.40;99.90;;;;;;5025275;28;20035;-69
2023/10/01 10:04:07;;;;;;;1.30;1.10;;;18.40;99.90;;;;;;5039845;28;20045;-71
2023/10/01 10:06:34;;;;;;;1.20;0.85;;;18.40;99.90;;;;;;5037257;28;20459;-71
2023/10/01 10:09:04;;;;;;;6.00;0.95;;;18.40;99.90;;;;;;5066819;28;20040;-72
2023/10/01 10:11:30;;;;;;;6.10;0.90;;;18.50;99.90;;;;;;5044178;28;20119;-72
2023/10/01 10:14:00;;;;;;;1.85;1.40;;;18.50;99.90;;;;;;5072025;28;20129;-73
2023/10/01 10:16:32;;;;;;;0.93;0.90;;;18.60;99.90;;;;;;5072510;28;20037;-71
2023/10/01 10:19:20;;;;;;;0.00;0.00;;;18.70;99.90;;;;;;5032879;28;20279;-72
2023/10/01 10:24:47;;;;;;;0.73;0.68;;;18.90;99.90;;;;;;5049959;28;20059;-73
2023/10/01 10:27:33;;;;;;;4.22;1.10;;;18.90;99.90;;;;;;5037950;28;20085;-72
2023/10/01 10:30:05;;;;;;;0.68;0.63;;;19.00;99.90;;;;;;5038602;28;20044;-73
2023/10/01 10:32:46;;;;;;;0.60;0.60;;;19.00;99.90;;;;;;5034110;28;20044;-71
2023/10/01 10:35:15;;;;;;;2.97;0.65;;;19.10;99.90;;;;;;5038347;28;20040;-72
2023/10/01 10:37:56;;;;;;;0.93;0.82;;;19.30;99.90;;;;;;5038200;28;20670;-72
2023/10/01 10:40:23;;;;;;;1.15;1.05;;;19.40;99.90;;;;;;5036558;28;20052;-71
2023/10/01 10:43:02;;;;;;;0.28;0.28;;;19.50;99.90;;;;;;5037279;28;20041;-73
2023/10/01 10:45:31;;;;;;;2.05;0.20;;;19.70;99.90;;;;;;5035814;28;20048;-72
2023/10/01 10:48:03;;;;;;;0.45;0.43;;;19.80;99.90;;;;;;5043332;28;20063;-71
2023/10/01 10:50:45;;;;;;;0.77;0.60;;;19.90;99.90;;;;;;5042215;28;20171;-71
2023/10/01 10:53:21;;;;;;;2.05;1.95;;;19.90;99.90;;;;;;5050983;28;20066;-71
2023/10/01 10:55:54;;;;;;;1.27;0.60;;;20.00;99.90;;;;;;5053175;28;20040;-73
2023/10/01 10:58:22;;;;;;;3.03;2.33;;;20.00;99.90;;;;;;5047908;28;20127;-74
2023/10/01 11:00:48;;;;;;;1.00;1.00;;;19.90;99.90;;;;;;5048305;28;20504;-71
2023/10/01 11:03:16;;;;;;;6.80;1.38;;;19.70;99.90;;;;;;5046725;28;20097;-72
2023/10/01 11:05:51;;;;;;;1.55;0.95;;;19.60;99.90;;;;;;5043813;28;20052;-70
2023/10/01 11:08:26;;;;;;;1.42;1.33;;;19.60;99.90;;;;;;5045180;28;20088;-70
2023/10/01 11:11:10;;;;;;;4.97;0.88;;;19.70;99.90;;;;;;5050962;28;22182;-72
2023/10/01 11:13:37;;;;;;;4.18;1.02;;;19.80;99.90;;;;;;5060829;28;20041;-73
2023/10/01 11:16:14;;;;;;;5.88;1.85;;;19.90;99.90;;;;;;5044750;28;20059;-71
2023/10/01 11:18:47;;;;;;;0.30;0.30;;;20.00;99.90;;;;;;5053689;28;20072;-72
2023/10/01 11:21:31;;;;;;;0.88;0.68;;;20.10;99.90;;;;;;5046549;28;20048;-70
2023/10/01 11:24:00;;;;;;;1.75;0.90;;;20.10;99.90;;;;;;5040141;28;20129;-70
2023/10/01 11:26:26;;;;;;;0.75;0.70;;;20.20;99.90;;;;;;5042897;28;20041;-71
2023/10/01 11:29:11;;;;;;;3.90;2.10;;;20.20;99.90;;;;;;5050389;28;20032;-73
2023/10/01 11:31:38;;;;;;;0.80;0.80;;;20.30;99.90;;;;;;5046854;28;20037;-72
2023/10/01 11:34:06;;;;;;;2.60;1.52;;;20.30;99.90;;;;;;5034512;28;20049;-70
2023/10/01 11:36:35;;;;;;;3.53;2.35;;;20.30;99.90;;;;;;5067855;28;20041;-70
2023/10/01 11:39:03;;;;;;;3.17;1.48;;;20.40;99.90;;;;;;5067243;28;20053;-71
2023/10/01 11:41:40;;;;;;;0.60;0.60;;;20.40;99.90;;;;;;5047127;28;20511;-71
2023/10/01 11:44:08;;;;;;;1.15;1.10;;;20.40;99.90;;;;;;5073330;28;20045;-70
2023/10/01 11:46:35;;;;;;;10.35;1.05;;;20.40;99.90;;;;;;5047783;28;20072;-70
2023/10/01 11:49:07;;;;;;;3.75;1.83;;;20.40;99.90;;;;;;5049008;28;20086;-69
2023/10/01 11:51:32;;;;;;;;;;;20.40;99.90;;;;;;5046497;28;20033;-69
2023/10/01 11:54:09;;;;;;;1.98;1.10;;;20.40;99.90;;;;;;5051659;28;19916;-69
2023/10/01 11:56:42;;;;;;;1.30;0.60;;;20.40;99.90;;;;;;5051448;28;20052;-67
2023/10/01 11:59:10;;;;;;;1.88;0.60;;;20.40;99.90;;;;;;5035475;28;20131;-67
2023/10/01 12:01:47;;;;;;;4.47;1.15;;;20.40;99.90;;;;;;5049605;28;20456;-67
2023/10/01 12:07:15;;;;;;;0.90;0.90;;;20.60;99.90;;;;;;5043234;28;20142;-71
2023/10/01 12:09:48;;;;;;;4.85;1.30;;;20.70;99.90;;;;;;5057087;28;20036;-70
2023/10/01 12:12:21;;;;;;;2.42;2.10;;;20.70;99.90;;;;;;5085710;28;20408;-70
2023/10/01 12:14:56;;;;;;;1.08;0.75;;;20.70;99.90;;;;;;5052598;28;20072;-72
2023/10/01 12:17:24;;;;;;;1.88;1.02;;;20.80;99.90;;;;;;5034320;28;20041;-70
2023/10/01 12:20:01;;;;;;;2.13;1.55;;;20.80;99.90;;;;;;5046386;28;20186;-72
2023/10/01 12:22:28;;;;;;;3.63;0.90;;;20.90;99.90;;;;;;5038215;28;20047;-71
2023/10/01 12:24:57;;;;;;;0.73;0.40;;;20.80;99.90;;;;;;5047383;28;20118;-68
2023/10/01 12:30:27;;;;;;;0.40;0.40;;;20.90;99.90;;;;;;5022665;28;20396;-68
2023/10/01 12:33:02;;;;;;;7.25;1.20;;;20.90;99.90;;;;;;5042751;28;20110;-69
2023/10/01 12:35:28;;;;;;;0.47;0.35;;;20.90;99.90;;;;;;5051660;28;20048;-68
2023/10/01 12:40:52;;;;;;;3.40;1.17;;;21.10;99.90;;;;;;5036992;28;20036;-69
2023/10/01 12:43:36;;;;;;;1.40;1.27;;;21.00;99.90;;;;;;5046591;28;20121;-68
2023/10/01 12:46:18;;;;;;;2.15;1.40;;;21.00;99.90;;;;;;5048808;28;20076;-69
2023/10/01 12:49:14;;;;;;;3.45;0.88;;;21.10;99.90;;;;;;5036717;28;20045;-71
2023/10/01 12:51:38;;;;;;;0.28;0.28;;;21.00;99.90;;;;;;5071448;28;20103;-70
2023/10/01 12:54:06;;;;;;;2.42;1.92;;;21.00;99.90;;;;;;5044434;28;20064;-70
2023/10/01 12:56:44;;;;;;;1.55;1.08;;;21.00;99.90;;;;;;5038341;28;20044;-70
2023/10/01 12:59:19;;;;;;;3.13;0.75;;;21.00;99.90;;;;;;5059738;28;20091;-69
2023/10/01 13:01:51;;;;;;;2.00;1.00;;;21.00;99.90;;;;;;5036259;28;20032;-68
2023/10/01 13:04:25;;;;;;;1.50;1.40;;;20.90;99.90;;;;;;5040481;28;20337;-68
2023/10/01 13:06:52;;;;;;;2.17;1.73;;;20.80;99.90;;;;;;5041986;28;20116;-68
2023/10/01 13:12:15;;;;;;;2.22;2.03;;;20.80;99.90;;;;;;5038913;28;20053;-69
2023/10/01 13:14:42;;;;;;;1.60;1.17;;;20.80;99.90;;;;;;5033069;28;20048;-68
2023/10/01 13:17:19;;;;;;;3.60;1.65;;;20.90;99.90;;;;;;5033198;28;20037;-67
2023/10/01 13:19:48;;;;;;;2.47;1.40;;;21.00;99.90;;;;;;5032156;28;20049;-67
2023/10/01 13:22:16;;;;;;;1.15;1.05;;;21.00;99.90;;;;;;5034417;28;20036;-72
2023/10/01 13:24:42;;;;;;;3.70;1.83;;;21.10;99.90;;;;;;5047411;28;20123;-68
2023/10/01 13:27:10;;;;;;;0.65;0.65;;;21.20;99.90;;;;;;5044944;28;20150;-67
2023/10/01 13:29:38;;;;;;;1.92;0.98;;;21.10;99.90;;;;;;5038137;28;20048;-68
2023/10/01 13:32:14;;;;;;;3.90;2.40;;;21.20;99.90;;;;;;5045618;28;20397;-68
2023/10/01 13:34:54;;;;;;;1.40;1.05;;;21.20;99.90;;;;;;5050710;28;20071;-67
2023/10/01 13:38:15;;;;;;;0.65;0.65;;;21.20;99.90;;;;;;5043897;28;20103;-68
2023/10/01 13:40:52;;;;;;;0.90;0.77;;;21.20;99.90;;;;;;5046100;28;20052;-68
2023/10/01 14:10:21;;;;;;;14.55;1.95;;;21.30;99.90;;;;;;5048933;28;20479;-67
2023/10/01 14:12:56;;;;;;;0.60;0.38;;;21.30;99.90;;;;;;5041008;28;20036;-67
2023/10/01 14:15:25;;;;;;;1.77;1.50;;;21.30;99.90;;;;;;5036580;28;20032;-69
2023/10/01 14:17:53;;;;;;;11.80;1.83;;;21.30;99.90;;;;;;5047113;28;20071;-69
2023/10/01 14:20:44;;;;;;;5.65;1.30;;;21.20;99.90;;;;;;5050792;28;20040;-68